createdAt,value
2022-10-14T00:01:10.989Z,20.90
2022-10-14T00:04:12.595Z,20.27
2022-10-14T00:07:19.500Z,22.50
2022-10-14T00:10:22.329Z,21.37
2022-10-14T00:13:24.351Z,22.17
2022-10-14T00:16:28.817Z,21.33
2022-10-14T00:19:30.389Z,22.40
2022-10-14T00:22:32.195Z,24.63
2022-10-14T00:25:43.390Z,23.60
2022-10-14T00:28:45.480Z,24.93
2022-10-14T00:31:47.555Z,23.80
2022-10-14T00:34:49.104Z,24.67
2022-10-14T00:37:50.673Z,24.60
2022-10-14T00:40:52.836Z,22.90
2022-10-14T00:44:03.981Z,23.03
2022-10-14T00:47:05.643Z,22.50
2022-10-14T00:50:07.765Z,24.30
2022-10-14T00:53:11.509Z,22.50
2022-10-14T00:56:18.294Z,23.70
2022-10-14T00:59:22.962Z,22.67
2022-10-14T01:02:24.553Z,22.03
2022-10-14T01:05:33.726Z,23.63
2022-10-14T01:08:45.304Z,22.73
2022-10-14T01:12:26.819Z,21.13
2022-10-14T01:15:34.162Z,21.80
2022-10-14T01:18:44.915Z,21.80
2022-10-14T01:21:55.115Z,21.47
2022-10-14T01:25:27.646Z,20.80
2022-10-14T01:28:59.891Z,21.37
2022-10-14T01:32:25.609Z,21.63
2022-10-14T01:35:49.277Z,21.50
2022-10-14T01:39:00.938Z,20.27
2022-10-14T01:42:12.534Z,19.73
2022-10-14T01:45:19.867Z,19.60
2022-10-14T01:48:26.687Z,20.63
2022-10-14T01:51:39.386Z,20.13
2022-10-14T01:54:44.423Z,19.27
2022-10-14T01:57:50.244Z,19.77
2022-10-14T02:00:51.964Z,19.93
2022-10-14T02:03:53.664Z,21.10
2022-10-14T02:07:15.370Z,19.27
2022-10-14T02:10:45.742Z,17.73
2022-10-14T02:13:53.667Z,17.70
2022-10-14T02:17:12.388Z,19.17
2022-10-14T02:20:40.745Z,18.30
2022-10-14T02:24:02.143Z,18.07
2022-10-14T02:27:12.584Z,18.13
2022-10-14T02:30:16.023Z,19.37
2022-10-14T02:33:20.736Z,18.53
2022-10-14T02:36:24.794Z,18.70
2022-10-14T02:39:31.214Z,18.67
2022-10-14T02:42:32.980Z,17.60
2022-10-14T02:45:34.985Z,17.40
2022-10-14T02:48:36.711Z,19.13
2022-10-14T02:51:38.546Z,18.17
2022-10-14T02:54:40.103Z,18.00
2022-10-14T02:57:41.974Z,17.80
2022-10-14T03:00:43.616Z,19.60
2022-10-14T03:03:45.604Z,16.90
2022-10-14T03:06:47.210Z,17.13
2022-10-14T03:09:48.769Z,17.50
2022-10-14T03:12:50.381Z,17.00
2022-10-14T03:15:51.992Z,17.20
2022-10-14T03:18:53.564Z,16.40
2022-10-14T03:21:55.133Z,16.97
2022-10-14T03:24:56.704Z,15.53
2022-10-14T03:27:58.259Z,15.87
2022-10-14T03:30:59.803Z,18.00
2022-10-14T03:34:01.391Z,15.77
2022-10-14T03:37:03.281Z,16.70
2022-10-14T03:40:05.415Z,17.27
2022-10-14T03:43:07.004Z,17.50
2022-10-14T03:46:08.540Z,17.07
2022-10-14T03:49:10.187Z,17.37
2022-10-14T03:52:11.833Z,17.40
2022-10-14T03:55:13.584Z,17.17
2022-10-14T03:58:15.285Z,17.67
2022-10-14T04:01:16.883Z,17.90
2022-10-14T04:04:18.598Z,18.60
2022-10-14T04:07:20.219Z,18.80
2022-10-14T04:10:21.873Z,16.83
2022-10-14T04:13:25.300Z,18.37
2022-10-14T04:16:27.265Z,19.77
2022-10-14T04:19:28.880Z,18.43
2022-10-14T04:22:30.640Z,18.50
2022-10-14T04:25:32.206Z,17.90
2022-10-14T04:28:34.681Z,17.93
2022-10-14T04:31:36.281Z,17.63
2022-10-14T04:34:37.846Z,17.63
2022-10-14T04:37:39.442Z,18.80
2022-10-14T04:40:47.065Z,18.90
2022-10-14T04:43:49.385Z,18.07
2022-10-14T04:46:51.016Z,19.20
2022-10-14T04:49:52.584Z,18.93
2022-10-14T04:52:54.220Z,18.10
2022-10-14T04:55:55.789Z,18.30
2022-10-14T04:58:57.367Z,19.40
2022-10-14T05:01:59.033Z,18.87
2022-10-14T05:05:00.831Z,19.37
2022-10-14T05:08:02.681Z,20.00
2022-10-14T05:11:04.502Z,19.20
2022-10-14T05:14:06.118Z,20.60
2022-10-14T05:17:07.830Z,21.73
2022-10-14T05:20:09.578Z,20.27
2022-10-14T05:23:11.260Z,21.20
2022-10-14T05:26:12.943Z,20.40
2022-10-14T05:29:14.844Z,18.53
2022-10-14T05:32:16.483Z,20.40
2022-10-14T05:35:33.934Z,19.60
2022-10-14T05:38:39.676Z,19.23
2022-10-14T05:41:41.231Z,19.07
2022-10-14T05:44:42.914Z,20.37
2022-10-14T05:47:44.783Z,20.70
2022-10-14T05:50:46.427Z,29.10
2022-10-14T05:53:48.334Z,19.47
2022-10-14T05:56:49.896Z,19.47
2022-10-14T05:59:51.494Z,17.80
2022-10-14T06:02:53.208Z,19.93
2022-10-14T06:05:55.585Z,19.33
2022-10-14T06:08:57.319Z,18.80
2022-10-14T06:11:58.869Z,18.43
2022-10-14T06:15:00.527Z,18.70
2022-10-14T06:18:02.120Z,19.30
2022-10-14T06:21:04.548Z,18.07
2022-10-14T06:24:06.485Z,18.17
2022-10-14T06:27:08.076Z,18.47
2022-10-14T06:30:10.424Z,21.00
2022-10-14T06:33:11.977Z,20.43
2022-10-14T06:36:13.634Z,20.30
2022-10-14T06:39:15.351Z,20.17
2022-10-14T06:42:17.090Z,20.33
2022-10-14T06:45:18.710Z,20.30
2022-10-14T06:48:20.301Z,19.40
2022-10-14T06:51:21.879Z,21.07
2022-10-14T06:54:23.442Z,20.60
2022-10-14T06:57:25.063Z,20.63
2022-10-14T07:00:26.750Z,20.30
2022-10-14T07:03:28.443Z,20.77
2022-10-14T07:06:30.075Z,20.33
2022-10-14T07:09:32.305Z,20.40
2022-10-14T07:12:33.908Z,22.13
2022-10-14T07:15:37.519Z,21.17
2022-10-14T07:18:39.078Z,18.57
2022-10-14T07:21:41.983Z,20.40
2022-10-14T07:24:44.229Z,22.10
2022-10-14T07:27:45.778Z,20.27
2022-10-14T07:30:56.962Z,20.23
2022-10-14T07:33:59.994Z,19.60
2022-10-14T07:37:01.668Z,19.67
2022-10-14T07:40:03.659Z,19.97
2022-10-14T07:43:08.751Z,20.27
2022-10-14T07:46:12.478Z,19.93
2022-10-14T07:49:17.550Z,19.30
2022-10-14T07:52:19.631Z,18.63
2022-10-14T07:55:21.194Z,18.77
2022-10-14T07:58:25.276Z,16.90
2022-10-14T08:01:26.970Z,16.70
2022-10-14T08:04:29.044Z,18.20
2022-10-14T08:07:31.092Z,16.33
2022-10-14T08:10:33.718Z,17.97
2022-10-14T08:13:35.408Z,14.93
2022-10-14T08:16:37.891Z,16.00
2022-10-14T08:19:39.939Z,15.77
2022-10-14T08:22:41.491Z,15.10
2022-10-14T08:25:44.105Z,14.30
2022-10-14T08:28:46.009Z,14.13
2022-10-14T08:31:47.893Z,14.40
2022-10-14T08:34:49.523Z,13.60
2022-10-14T08:37:58.833Z,14.10
2022-10-14T08:41:35.664Z,12.80
2022-10-14T08:44:40.848Z,12.80
2022-10-14T08:47:46.049Z,13.77
2022-10-14T08:51:04.731Z,12.47
2022-10-14T08:54:11.564Z,12.97
2022-10-14T08:57:18.494Z,13.03
2022-10-14T09:00:21.846Z,13.40
2022-10-14T09:03:32.785Z,12.80
2022-10-14T09:06:38.354Z,13.40
2022-10-14T09:09:49.876Z,13.03
2022-10-14T09:12:53.425Z,13.30
2022-10-14T09:16:03.666Z,12.43
2022-10-14T09:19:15.450Z,11.93
2022-10-14T09:22:17.106Z,11.60
2022-10-14T09:25:18.804Z,12.03
2022-10-14T09:28:20.809Z,11.43
2022-10-14T09:31:22.507Z,13.03
2022-10-14T09:34:38.710Z,11.77
2022-10-14T09:37:40.360Z,11.13
2022-10-14T09:40:44.754Z,11.77
2022-10-14T09:44:15.658Z,10.73
2022-10-14T09:47:19.101Z,10.83
2022-10-14T09:50:26.564Z,10.77
2022-10-14T09:53:46.992Z,10.60
2022-10-14T09:56:49.499Z,8.80
2022-10-14T10:00:00.852Z,9.53
2022-10-14T10:03:02.475Z,8.77
2022-10-14T10:06:10.096Z,9.10
2022-10-14T10:09:18.527Z,8.43
2022-10-14T10:12:32.584Z,7.70
2022-10-14T10:15:34.155Z,8.60
2022-10-14T10:18:35.789Z,8.17
2022-10-14T10:21:37.402Z,8.13
2022-10-14T10:24:39.060Z,7.80
2022-10-14T10:27:45.795Z,8.60
2022-10-14T10:31:28.819Z,7.63
2022-10-14T10:34:45.424Z,7.30
2022-10-14T10:38:09.327Z,8.87
2022-10-14T10:41:37.938Z,8.20
2022-10-14T10:44:53.022Z,6.60
2022-10-14T10:48:20.969Z,7.40
2022-10-14T10:51:57.431Z,7.20
2022-10-14T10:55:24.100Z,7.60
2022-10-14T10:58:46.947Z,7.40
2022-10-14T11:01:48.585Z,7.27
2022-10-14T11:05:09.282Z,7.23
2022-10-14T11:08:43.338Z,8.10
2022-10-14T11:12:34.286Z,7.20
2022-10-14T11:15:57.891Z,7.60
2022-10-14T11:19:14.748Z,7.00
2022-10-14T11:22:53.474Z,6.80
2022-10-14T11:26:02.431Z,7.70
2022-10-14T11:29:13.099Z,7.00
2022-10-14T11:32:22.684Z,8.37
2022-10-14T11:35:47.049Z,6.37
2022-10-14T11:39:17.770Z,7.10
2022-10-14T11:42:25.509Z,7.77
2022-10-14T11:45:36.007Z,8.20
2022-10-14T11:48:40.701Z,7.30
2022-10-14T11:51:57.654Z,7.10
2022-10-14T11:55:08.674Z,7.83
2022-10-14T11:58:17.219Z,7.63
2022-10-14T12:01:22.552Z,7.90
2022-10-14T12:04:38.550Z,7.43
2022-10-14T12:08:06.771Z,8.30
2022-10-14T12:11:33.257Z,9.00
2022-10-14T12:14:51.087Z,8.63
2022-10-14T12:17:54.736Z,8.40
2022-10-14T12:21:01.133Z,8.23
2022-10-14T12:24:14.800Z,8.20
2022-10-14T12:27:18.708Z,9.23
2022-10-14T12:30:41.252Z,8.03
2022-10-14T12:34:10.928Z,8.73
2022-10-14T12:37:34.983Z,8.60
2022-10-14T12:40:37.321Z,7.80
2022-10-14T12:43:39.045Z,7.57
2022-10-14T12:46:46.368Z,8.37
2022-10-14T12:49:56.328Z,8.10
2022-10-14T12:53:16.568Z,9.20
2022-10-14T12:56:34.013Z,7.83
2022-10-14T12:59:38.927Z,8.83
2022-10-14T13:02:53.297Z,7.70
2022-10-14T13:06:35.451Z,7.30
2022-10-14T13:09:37.182Z,8.30
2022-10-14T13:12:40.877Z,8.50
2022-10-14T13:15:51.494Z,8.60
2022-10-14T13:19:03.887Z,7.50
2022-10-14T13:22:31.443Z,8.10
2022-10-14T13:25:36.186Z,8.57
2022-10-14T13:28:47.758Z,7.90
2022-10-14T13:32:05.731Z,9.33
2022-10-14T13:35:13.090Z,8.60
2022-10-14T13:38:17.722Z,9.30
2022-10-14T13:41:29.811Z,9.60
2022-10-14T13:44:34.284Z,9.73
2022-10-14T13:47:36.564Z,10.13
2022-10-14T13:50:38.598Z,10.90
2022-10-14T13:54:00.444Z,10.97
2022-10-14T14:00:40.575Z,10.57
2022-10-14T14:03:51.572Z,11.30
2022-10-14T14:07:07.218Z,10.63
2022-10-14T14:10:24.183Z,10.33
2022-10-14T14:13:30.592Z,12.90
2022-10-14T14:16:36.007Z,12.50
2022-10-14T14:19:38.141Z,10.47
2022-10-14T14:22:46.216Z,12.00
2022-10-14T14:26:14.370Z,9.30
2022-10-14T14:29:20.019Z,9.97
2022-10-14T14:32:28.423Z,9.43
2022-10-14T14:35:30.198Z,9.53
2022-10-14T14:38:37.308Z,9.80
2022-10-14T14:41:38.864Z,10.20
2022-10-14T14:44:42.962Z,10.27
2022-10-14T14:47:45.024Z,10.60
2022-10-14T14:50:48.760Z,10.43
2022-10-14T14:53:53.740Z,9.80
2022-10-14T14:57:00.930Z,9.97
2022-10-14T15:00:06.093Z,10.10
2022-10-14T15:03:09.037Z,10.33
2022-10-14T15:06:17.905Z,9.00
2022-10-14T15:09:41.196Z,9.70
2022-10-14T15:12:55.917Z,9.83
2022-10-14T15:15:57.768Z,9.87
2022-10-14T15:19:20.883Z,9.50
2022-10-14T15:22:34.552Z,9.80
2022-10-14T15:25:36.634Z,10.17
2022-10-14T15:28:38.304Z,9.93
2022-10-14T15:31:41.545Z,9.67
2022-10-14T15:34:44.069Z,9.30
2022-10-14T15:37:46.069Z,8.57
2022-10-14T15:40:48.608Z,9.70
2022-10-14T15:43:50.248Z,9.70
2022-10-14T15:47:10.225Z,8.90
2022-10-14T15:50:19.363Z,10.40
2022-10-14T15:53:20.948Z,10.10
2022-10-14T15:56:22.610Z,9.30
2022-10-14T15:59:25.502Z,10.03
2022-10-14T16:02:33.013Z,9.70
2022-10-14T16:05:34.660Z,9.40
2022-10-14T16:08:36.287Z,10.50
2022-10-14T16:11:38.012Z,10.03
2022-10-14T16:14:40.055Z,10.80
2022-10-14T16:17:42.833Z,10.90
2022-10-14T16:20:47.424Z,11.87
2022-10-14T16:23:49.827Z,11.53
2022-10-14T16:26:52.213Z,12.40
2022-10-14T16:29:53.840Z,12.77
2022-10-14T16:32:55.643Z,12.30
2022-10-14T16:35:57.627Z,14.20
2022-10-14T16:39:01.590Z,13.53
2022-10-14T16:42:03.460Z,14.40
2022-10-14T16:45:05.721Z,14.87
2022-10-14T16:48:07.348Z,13.93
2022-10-14T16:51:09.091Z,14.30
2022-10-14T16:54:11.452Z,14.53
2022-10-14T16:57:13.421Z,15.50
2022-10-14T17:03:18.207Z,13.50
2022-10-14T17:06:23.915Z,14.87
2022-10-14T17:09:25.984Z,13.03
2022-10-14T17:12:27.698Z,12.27
2022-10-14T17:15:29.260Z,12.30
2022-10-14T17:18:34.712Z,11.77
2022-10-14T17:21:37.122Z,11.30
2022-10-14T17:24:38.692Z,11.50
2022-10-14T17:27:40.253Z,12.70
2022-10-14T17:30:41.924Z,13.50
2022-10-14T17:33:43.519Z,12.53
2022-10-14T17:36:45.128Z,12.00
2022-10-14T17:39:46.722Z,12.30
2022-10-14T17:42:50.326Z,11.63
2022-10-14T17:45:51.868Z,12.00
2022-10-14T17:48:56.145Z,11.90
2022-10-14T17:52:04.399Z,12.20
2022-10-14T17:55:06.400Z,11.67
2022-10-14T17:58:08.098Z,12.20
2022-10-14T18:01:19.707Z,13.30
2022-10-14T18:04:28.871Z,12.90
2022-10-14T18:07:30.431Z,13.23
2022-10-14T18:10:32.091Z,12.33
2022-10-14T18:13:33.961Z,13.37
2022-10-14T18:16:37.852Z,13.50
2022-10-14T18:19:40.932Z,13.23
2022-10-14T18:22:42.805Z,13.40
2022-10-14T18:25:45.076Z,12.23
2022-10-14T18:28:49.120Z,12.20
2022-10-14T18:34:53.777Z,12.37
2022-10-14T18:37:55.383Z,11.13
2022-10-14T18:41:08.725Z,11.33
2022-10-14T18:44:10.570Z,10.50
2022-10-14T18:47:12.277Z,9.73
2022-10-14T18:50:13.935Z,10.27
2022-10-14T18:53:15.499Z,9.53
2022-10-14T18:56:21.741Z,11.10
2022-10-14T18:59:23.891Z,10.50
2022-10-14T19:02:25.684Z,11.47
2022-10-14T19:05:32.160Z,12.30
2022-10-14T19:08:39.581Z,12.73
2022-10-14T19:11:42.071Z,12.67
2022-10-14T19:14:44.343Z,12.00
2022-10-14T19:17:50.873Z,13.20
2022-10-14T19:20:58.075Z,14.40
2022-10-14T19:24:03.858Z,13.27
2022-10-14T19:27:05.604Z,12.03
2022-10-14T19:30:07.815Z,11.30
2022-10-14T19:33:09.391Z,10.63
2022-10-14T19:36:12.872Z,10.30
2022-10-14T19:39:16.429Z,10.80
2022-10-14T19:42:18.054Z,11.53
2022-10-14T19:45:19.658Z,10.30
2022-10-14T19:48:21.509Z,9.30
2022-10-14T19:51:23.587Z,7.10
2022-10-14T19:54:25.396Z,6.17
2022-10-14T19:57:30.447Z,4.83
2022-10-14T20:00:33.717Z,3.70
2022-10-14T20:03:35.582Z,2.53
2022-10-14T20:06:39.889Z,2.30
2022-10-14T20:09:41.462Z,2.43
2022-10-14T20:12:43.019Z,3.17
2022-10-14T20:15:44.611Z,3.23
2022-10-14T20:18:46.265Z,3.33
2022-10-14T20:21:47.823Z,3.50
2022-10-14T20:24:52.501Z,3.90
2022-10-14T20:27:54.042Z,3.67
2022-10-14T20:30:57.292Z,3.83
2022-10-14T20:33:58.871Z,3.43
2022-10-14T20:37:00.611Z,3.53
2022-10-14T20:40:02.198Z,4.20
2022-10-14T20:43:04.663Z,3.50
2022-10-14T20:46:06.471Z,3.83
2022-10-14T20:49:08.182Z,4.20
2022-10-14T20:52:09.872Z,4.30
2022-10-14T20:55:11.807Z,5.87
2022-10-14T20:58:13.553Z,5.67
2022-10-14T21:01:17.108Z,6.60
2022-10-14T21:04:18.708Z,7.43
2022-10-14T21:07:21.607Z,7.27
2022-10-14T21:10:24.272Z,8.27
2022-10-14T21:13:26.191Z,8.40
2022-10-14T21:16:33.620Z,7.70
2022-10-14T21:19:35.659Z,8.13
2022-10-14T21:22:37.260Z,8.47
2022-10-14T21:25:39.133Z,7.67
2022-10-14T21:28:40.787Z,7.70
2022-10-14T21:31:42.485Z,7.30
2022-10-14T21:34:44.094Z,6.97
2022-10-14T21:37:45.696Z,6.13
2022-10-14T21:40:47.260Z,6.00
2022-10-14T21:43:48.829Z,5.60
2022-10-14T21:46:50.383Z,5.20
2022-10-14T21:49:51.964Z,5.27
2022-10-14T21:52:53.552Z,5.07
2022-10-14T21:55:55.108Z,4.93
2022-10-14T21:58:57.143Z,4.90
2022-10-14T22:01:59.056Z,4.70
2022-10-14T22:05:00.803Z,4.10
2022-10-14T22:08:02.373Z,4.23
2022-10-14T22:11:04.966Z,4.23
2022-10-14T22:14:10.451Z,3.23
2022-10-14T22:17:14.721Z,3.43
2022-10-14T22:20:16.832Z,4.00
2022-10-14T22:23:18.383Z,3.00
2022-10-14T22:26:23.506Z,2.90
2022-10-14T22:29:25.161Z,3.37
2022-10-14T22:32:27.086Z,3.10
2022-10-14T22:35:28.658Z,3.50
2022-10-14T22:38:30.212Z,3.67
2022-10-14T22:41:35.475Z,3.90
2022-10-14T22:44:37.560Z,3.50
2022-10-14T22:47:39.238Z,4.50
2022-10-14T22:50:40.795Z,5.20
2022-10-14T22:53:43.415Z,4.47
2022-10-14T22:56:44.985Z,5.10
2022-10-14T22:59:46.562Z,4.80
2022-10-14T23:02:48.161Z,4.80
2022-10-14T23:05:49.760Z,5.30
2022-10-14T23:08:51.496Z,4.90
2022-10-14T23:11:53.088Z,5.70
2022-10-14T23:14:54.731Z,6.63
2022-10-14T23:17:56.287Z,5.77
2022-10-14T23:20:57.944Z,6.07
2022-10-14T23:24:01.989Z,5.73
2022-10-14T23:27:03.664Z,6.30
2022-10-14T23:30:06.556Z,6.70
2022-10-14T23:33:10.726Z,6.30
2022-10-14T23:36:13.580Z,6.20
2022-10-14T23:39:15.550Z,7.13
2022-10-14T23:42:17.129Z,6.10
2022-10-14T23:45:18.824Z,6.67
2022-10-14T23:48:20.367Z,6.40
2022-10-14T23:51:21.944Z,6.43
2022-10-14T23:54:24.175Z,7.43
2022-10-14T23:57:26.141Z,7.00
